createdAt,value
2023-01-13T00:01:39.471Z,2.50
2023-01-13T00:04:29.309Z,2.72
2023-01-13T00:07:17.709Z,2.63
2023-01-13T00:09:49.436Z,2.38
2023-01-13T00:15:27.111Z,2.70
2023-01-13T00:18:18.013Z,3.45
2023-01-13T00:20:50.404Z,2.72
2023-01-13T00:23:29.715Z,2.30
2023-01-13T00:26:05.577Z,3.05
2023-01-13T00:28:49.147Z,2.80
2023-01-13T00:31:21.503Z,3.15
2023-01-13T00:34:10.395Z,3.20
2023-01-13T00:36:43.473Z,3.10
2023-01-13T00:39:20.998Z,2.85
2023-01-13T00:42:21.501Z,2.95
2023-01-13T00:45:03.394Z,2.33
2023-01-13T00:47:49.039Z,3.38
2023-01-13T00:50:32.968Z,2.78
2023-01-13T00:53:53.877Z,3.10
2023-01-13T00:56:46.734Z,2.80
2023-01-13T00:59:23.192Z,2.70
2023-01-13T01:02:07.277Z,2.50
2023-01-13T01:04:50.510Z,2.83
2023-01-13T01:07:35.579Z,2.97
2023-01-13T01:10:22.369Z,3.35
2023-01-13T01:13:19.034Z,3.03
2023-01-13T01:16:11.097Z,2.65
2023-01-13T01:18:49.407Z,3.75
2023-01-13T01:21:44.177Z,2.83
2023-01-13T01:27:45.692Z,2.75
2023-01-13T01:30:23.989Z,3.50
2023-01-13T01:33:14.609Z,2.10
2023-01-13T01:36:08.339Z,2.97
2023-01-13T01:42:12.180Z,3.05
2023-01-13T01:50:55.636Z,3.50
2023-01-13T01:53:41.946Z,4.38
2023-01-13T01:57:02.536Z,3.22
2023-01-13T01:59:47.951Z,3.08
2023-01-13T02:02:40.360Z,4.20
2023-01-13T02:08:37.868Z,3.75
2023-01-13T02:12:22.902Z,4.47
2023-01-13T02:18:56.056Z,3.78
2023-01-13T02:45:05.595Z,4.07
2023-01-13T02:48:51.397Z,4.10
2023-01-13T02:52:21.082Z,3.47
2023-01-13T02:56:03.789Z,3.88
2023-01-13T02:59:54.455Z,3.97
2023-01-13T03:03:42.113Z,4.53
2023-01-13T03:15:17.803Z,3.38
2023-01-13T03:33:34.208Z,3.63
2023-01-13T04:02:23.301Z,3.60
2023-01-13T04:28:01.151Z,3.40
2023-01-13T05:28:42.237Z,3.30
2023-01-13T06:26:29.834Z,1.92
2023-01-13T06:28:57.084Z,2.00
2023-01-13T06:34:14.517Z,1.90
2023-01-13T06:36:53.597Z,1.70
2023-01-13T06:39:24.759Z,1.58
2023-01-13T06:42:19.550Z,2.35
2023-01-13T06:44:46.855Z,1.83
2023-01-13T06:47:20.501Z,2.03
2023-01-13T06:49:47.633Z,1.67
2023-01-13T06:52:21.502Z,1.95
2023-01-13T06:54:48.820Z,2.33
2023-01-13T06:57:22.634Z,1.92
2023-01-13T06:59:51.945Z,2.88
2023-01-13T07:02:25.771Z,2.33
2023-01-13T07:05:03.089Z,2.33
2023-01-13T07:10:30.524Z,2.47
2023-01-13T07:13:19.705Z,2.00
2023-01-13T07:16:04.614Z,1.85
2023-01-13T07:18:39.660Z,2.10
2023-01-13T07:21:18.518Z,2.70
2023-01-13T07:23:46.199Z,2.95
2023-01-13T07:26:26.725Z,2.30
2023-01-13T07:28:57.020Z,2.60
2023-01-13T07:31:30.546Z,2.10
2023-01-13T07:33:57.939Z,2.20
2023-01-13T07:36:31.796Z,1.92
2023-01-13T07:38:59.380Z,2.47
2023-01-13T07:41:51.685Z,2.70
2023-01-13T07:44:32.223Z,2.50
2023-01-13T07:47:09.339Z,2.53
2023-01-13T07:49:49.400Z,2.65
2023-01-13T07:52:22.538Z,1.95
2023-01-13T07:54:56.657Z,2.63
2023-01-13T07:57:26.014Z,2.45
2023-01-13T08:00:02.619Z,2.40
2023-01-13T08:02:29.864Z,3.20
2023-01-13T08:05:03.589Z,2.85
2023-01-13T08:07:30.751Z,3.13
2023-01-13T08:10:06.638Z,3.45
2023-01-13T08:12:56.972Z,3.55
2023-01-13T08:15:31.769Z,2.65
2023-01-13T08:17:59.674Z,3.65
2023-01-13T08:20:36.585Z,2.75
2023-01-13T08:23:10.570Z,3.10
2023-01-13T08:25:51.704Z,2.92
2023-01-13T08:28:25.645Z,2.40
2023-01-13T08:31:00.574Z,3.58
2023-01-13T08:33:36.684Z,2.58
2023-01-13T08:36:08.910Z,2.90
2023-01-13T08:41:21.637Z,3.30
2023-01-13T08:43:55.821Z,2.88
2023-01-13T08:46:29.593Z,2.40
2023-01-13T08:49:16.027Z,3.40
2023-01-13T08:51:43.741Z,2.72
2023-01-13T08:54:17.754Z,3.15
2023-01-13T08:56:52.634Z,2.97
2023-01-13T08:59:27.712Z,3.10
2023-01-13T09:02:00.992Z,2.90
2023-01-13T09:04:35.666Z,2.90
2023-01-13T09:07:05.469Z,2.88
2023-01-13T09:09:39.534Z,2.60
2023-01-13T09:12:35.625Z,2.30
2023-01-13T09:15:03.740Z,3.13
2023-01-13T09:17:37.527Z,2.22
2023-01-13T09:20:05.593Z,2.45
2023-01-13T09:22:44.519Z,3.08
2023-01-13T09:25:19.613Z,2.78
2023-01-13T09:27:49.460Z,2.65
2023-01-13T09:33:24.658Z,3.17
2023-01-13T09:35:58.606Z,2.85
2023-01-13T09:38:25.824Z,2.90
2023-01-13T09:41:04.369Z,2.35
2023-01-13T09:43:55.821Z,2.65
2023-01-13T09:46:56.685Z,2.97
2023-01-13T09:49:45.615Z,2.55
2023-01-13T09:52:27.259Z,2.70
2023-01-13T09:55:18.621Z,2.03
2023-01-13T09:57:46.074Z,3.05
2023-01-13T10:00:33.625Z,2.67
2023-01-13T10:03:28.245Z,3.33
2023-01-13T10:06:11.689Z,2.83
2023-01-13T10:08:41.670Z,3.50
2023-01-13T10:11:50.752Z,2.53
2023-01-13T10:25:05.051Z,3.05
2023-01-13T10:27:48.281Z,3.55
2023-01-13T10:30:25.366Z,3.55
2023-01-13T10:33:26.975Z,3.25
2023-01-13T10:36:14.376Z,2.63
2023-01-13T10:38:57.912Z,3.00
2023-01-13T10:41:27.437Z,2.90
2023-01-13T10:44:25.439Z,3.63
2023-01-13T10:46:59.631Z,2.33
2023-01-13T10:49:43.572Z,2.42
2023-01-13T10:53:14.211Z,2.97
2023-01-13T10:55:50.226Z,2.85
2023-01-13T10:58:20.910Z,2.28
2023-01-13T11:00:56.770Z,2.80
2023-01-13T11:03:26.157Z,2.45
2023-01-13T11:06:03.872Z,3.15
2023-01-13T11:08:55.617Z,2.88
2023-01-13T11:11:42.862Z,2.75
2023-01-13T11:14:46.900Z,3.10
2023-01-13T11:18:06.606Z,2.70
2023-01-13T11:20:41.617Z,2.83
2023-01-13T11:23:36.462Z,2.75
2023-01-13T11:26:25.644Z,1.58
2023-01-13T11:29:00.003Z,2.13
2023-01-13T11:31:43.693Z,3.00
2023-01-13T11:37:42.234Z,2.65
2023-01-13T11:40:28.696Z,2.88
2023-01-13T11:43:28.892Z,2.92
2023-01-13T11:45:58.574Z,2.83
2023-01-13T11:51:25.780Z,2.63
2023-01-13T11:54:20.847Z,2.78
2023-01-13T12:00:33.597Z,3.33
2023-01-13T12:03:33.838Z,2.20
2023-01-13T12:06:15.502Z,2.70
2023-01-13T12:12:30.721Z,3.42
2023-01-13T12:15:12.906Z,3.20
2023-01-13T12:18:24.721Z,3.08
2023-01-13T12:21:07.185Z,2.78
2023-01-13T12:23:48.968Z,3.22
2023-01-13T12:26:17.980Z,2.50
2023-01-13T12:28:57.849Z,2.95
2023-01-13T12:31:34.231Z,3.10
2023-01-13T12:34:26.840Z,2.63
2023-01-13T12:37:35.823Z,3.15
2023-01-13T12:40:31.734Z,2.83
2023-01-13T12:43:38.726Z,3.15
2023-01-13T12:46:59.709Z,2.60
2023-01-13T12:49:31.001Z,2.80
2023-01-13T12:52:13.807Z,3.35
2023-01-13T12:54:46.784Z,3.22
2023-01-13T12:57:30.724Z,2.80
2023-01-13T13:00:03.891Z,2.90
2023-01-13T13:02:41.786Z,3.15
2023-01-13T13:05:27.204Z,2.70
2023-01-13T13:08:17.736Z,2.70
2023-01-13T13:11:39.597Z,2.63
2023-01-13T13:14:20.797Z,2.90
2023-01-13T13:17:02.280Z,2.88
2023-01-13T13:19:38.758Z,3.08
2023-01-13T13:22:14.799Z,2.83
2023-01-13T13:25:10.758Z,2.90
2023-01-13T13:27:37.573Z,3.47
2023-01-13T13:30:35.685Z,2.08
2023-01-13T13:33:33.590Z,3.47
2023-01-13T13:36:52.465Z,2.65
2023-01-13T13:39:50.813Z,2.63
2023-01-13T13:42:46.192Z,2.78
2023-01-13T13:45:47.727Z,2.80
2023-01-13T13:48:27.056Z,2.63
2023-01-13T13:51:08.790Z,2.28
2023-01-13T13:53:39.599Z,2.97
2023-01-13T13:58:57.784Z,3.65
2023-01-13T14:01:43.937Z,2.67
2023-01-13T14:04:26.323Z,2.40
2023-01-13T14:09:54.563Z,2.25
2023-01-13T14:12:31.792Z,2.65
2023-01-13T14:15:12.766Z,2.65
2023-01-13T14:17:45.787Z,2.13
2023-01-13T14:20:24.779Z,2.53
2023-01-13T14:23:00.727Z,3.17
2023-01-13T14:25:38.877Z,2.20
2023-01-13T14:28:33.723Z,2.47
2023-01-13T14:31:03.029Z,2.50
2023-01-13T14:33:46.684Z,3.20
2023-01-13T14:36:33.324Z,2.42
2023-01-13T14:39:09.643Z,2.72
2023-01-13T14:41:45.557Z,3.15
2023-01-13T14:44:41.759Z,2.65
2023-01-13T14:47:26.041Z,2.70
2023-01-13T14:50:17.610Z,2.30
2023-01-13T14:52:50.677Z,2.20
2023-01-13T14:55:45.699Z,2.17
2023-01-13T14:58:28.741Z,2.83
2023-01-13T15:01:37.073Z,2.67
2023-01-13T15:04:24.937Z,2.05
2023-01-13T15:07:07.204Z,2.80
2023-01-13T15:09:48.756Z,3.97
2023-01-13T15:12:29.614Z,2.17
2023-01-13T15:15:05.059Z,2.28
2023-01-13T15:17:38.602Z,2.03
2023-01-13T15:20:12.997Z,2.05
2023-01-13T15:22:46.710Z,1.75
2023-01-13T15:25:15.082Z,2.50
2023-01-13T15:27:52.749Z,1.60
2023-01-13T15:30:31.767Z,1.73
2023-01-13T15:33:06.209Z,1.88
2023-01-13T15:35:33.837Z,1.40
2023-01-13T15:38:06.673Z,1.90
2023-01-13T15:40:39.611Z,1.67
2023-01-13T15:43:24.829Z,1.80
2023-01-13T15:46:45.822Z,1.83
2023-01-13T15:49:25.450Z,1.45
2023-01-13T15:51:58.843Z,1.90
2023-01-13T15:54:32.110Z,1.65
2023-01-13T15:57:05.819Z,1.92
2023-01-13T15:59:40.737Z,1.95
2023-01-13T16:02:14.923Z,1.80
2023-01-13T16:04:48.868Z,2.40
2023-01-13T16:07:18.590Z,1.83
2023-01-13T16:09:55.669Z,1.77
2023-01-13T16:12:22.560Z,2.13
2023-01-13T16:14:55.876Z,1.52
2023-01-13T16:17:25.506Z,1.80
2023-01-13T16:19:58.733Z,2.25
2023-01-13T16:22:25.963Z,2.40
2023-01-13T16:24:59.668Z,2.20
2023-01-13T16:27:26.694Z,1.95
2023-01-13T16:29:53.494Z,1.83
2023-01-13T16:32:27.697Z,1.83
2023-01-13T16:35:00.887Z,2.58
2023-01-13T16:37:28.220Z,2.53
2023-01-13T16:40:01.811Z,2.28
2023-01-13T16:42:28.929Z,2.72
2023-01-13T16:45:02.770Z,2.47
2023-01-13T16:47:29.549Z,2.10
2023-01-13T16:50:02.751Z,2.28
2023-01-13T16:52:32.108Z,2.00
2023-01-13T16:55:08.467Z,2.20
2023-01-13T16:57:41.802Z,1.98
2023-01-13T17:00:11.616Z,1.75
2023-01-13T17:02:44.931Z,1.80
2023-01-13T17:05:21.716Z,2.20
2023-01-13T17:07:48.640Z,2.40
2023-01-13T17:10:27.766Z,2.28
2023-01-13T17:13:14.066Z,2.15
2023-01-13T17:15:56.365Z,2.45
2023-01-13T17:18:23.628Z,2.20
2023-01-13T17:20:58.428Z,2.20
2023-01-13T17:23:25.575Z,2.00
2023-01-13T17:26:03.156Z,2.78
2023-01-13T17:28:36.731Z,2.15
2023-01-13T17:31:04.584Z,2.20
2023-01-13T17:33:43.845Z,2.25
2023-01-13T17:36:15.130Z,2.05
2023-01-13T17:38:48.795Z,2.30
2023-01-13T17:41:16.290Z,2.20
2023-01-13T17:43:51.267Z,2.75
2023-01-13T17:46:20.108Z,2.08
2023-01-13T17:49:09.859Z,1.33
2023-01-13T17:51:48.336Z,2.58
2023-01-13T17:54:22.912Z,2.67
2023-01-13T17:56:51.109Z,2.50
2023-01-13T17:59:25.775Z,2.20
2023-01-13T18:01:52.691Z,2.40
2023-01-13T18:04:29.786Z,2.65
2023-01-13T18:07:07.460Z,2.33
2023-01-13T18:09:40.760Z,2.08
2023-01-13T18:12:07.717Z,1.83
2023-01-13T18:14:54.793Z,2.33
2023-01-13T18:17:27.801Z,2.45
2023-01-13T18:20:13.158Z,1.67
2023-01-13T18:23:05.784Z,2.63
2023-01-13T18:25:57.820Z,2.28
2023-01-13T18:28:24.529Z,2.20
2023-01-13T18:30:51.455Z,2.10
2023-01-13T18:33:24.876Z,2.00
2023-01-13T18:35:51.756Z,1.80
2023-01-13T18:38:34.781Z,2.40
2023-01-13T18:41:30.992Z,1.70
2023-01-13T18:44:04.971Z,1.77
2023-01-13T18:46:33.799Z,2.28
2023-01-13T18:49:06.791Z,1.75
2023-01-13T18:51:34.120Z,1.73
2023-01-13T18:54:13.917Z,1.88
2023-01-13T18:56:44.364Z,1.83
2023-01-13T18:59:11.183Z,2.03
2023-01-13T19:01:45.138Z,1.63
2023-01-13T19:04:23.889Z,2.05
2023-01-13T19:06:53.850Z,1.73
2023-01-13T19:09:31.987Z,1.95
2023-01-13T19:12:01.364Z,2.80
2023-01-13T19:14:49.101Z,1.92
2023-01-13T19:17:23.854Z,1.77
2023-01-13T19:19:53.918Z,1.60
2023-01-13T19:22:38.796Z,1.80
2023-01-13T19:25:08.749Z,1.92
2023-01-13T19:27:42.047Z,1.33
2023-01-13T19:30:09.608Z,1.50
2023-01-13T19:32:42.916Z,2.03
2023-01-13T19:35:15.901Z,1.55
2023-01-13T19:37:43.759Z,1.52
2023-01-13T19:40:17.767Z,1.30
2023-01-13T19:43:09.880Z,1.25
2023-01-13T19:45:36.752Z,1.52
2023-01-13T19:48:11.893Z,1.10
2023-01-13T19:50:49.722Z,1.50
2023-01-13T19:53:24.843Z,2.30
2023-01-13T19:55:56.288Z,1.67
2023-01-13T19:58:31.104Z,1.35
2023-01-13T20:01:04.896Z,1.30
2023-01-13T20:03:39.567Z,1.80
2023-01-13T20:06:19.976Z,1.42
2023-01-13T20:08:48.414Z,1.90
2023-01-13T20:11:28.387Z,1.58
2023-01-13T20:14:15.009Z,1.80
2023-01-13T20:16:54.180Z,1.60
2023-01-13T20:19:30.726Z,1.60
2023-01-13T20:22:03.797Z,1.20
2023-01-13T20:24:37.911Z,1.80
2023-01-13T20:27:05.757Z,1.92
2023-01-13T20:29:39.895Z,2.08
2023-01-13T20:32:09.497Z,1.80
2023-01-13T20:34:49.095Z,2.00
2023-01-13T20:37:15.880Z,2.45
2023-01-13T20:39:52.984Z,2.28
2023-01-13T20:42:51.017Z,2.40
2023-01-13T20:45:26.811Z,2.33
2023-01-13T20:47:54.152Z,1.88
2023-01-13T20:50:27.886Z,2.30
2023-01-13T20:52:54.680Z,2.90
2023-01-13T20:55:29.192Z,2.20
2023-01-13T20:57:56.137Z,2.90
2023-01-13T21:00:30.017Z,2.20
2023-01-13T21:02:57.118Z,2.42
2023-01-13T21:05:31.015Z,1.80
2023-01-13T21:08:03.977Z,1.95
2023-01-13T21:10:30.854Z,2.13
2023-01-13T21:13:23.070Z,2.40
2023-01-13T21:16:04.548Z,2.55
2023-01-13T21:18:49.989Z,2.90
2023-01-13T21:21:26.421Z,2.83
2023-01-13T21:23:59.919Z,2.78
2023-01-13T21:26:39.645Z,2.20
2023-01-13T21:29:13.939Z,2.15
2023-01-13T21:31:45.421Z,2.63
2023-01-13T21:34:18.968Z,2.25
2023-01-13T21:36:53.975Z,1.90
2023-01-13T21:39:27.063Z,1.90
2023-01-13T21:42:19.065Z,2.17
2023-01-13T21:45:11.006Z,2.00
2023-01-13T21:47:49.558Z,2.33
2023-01-13T21:50:29.898Z,2.05
2023-01-13T21:52:58.425Z,2.00
2023-01-13T21:55:35.942Z,2.20
2023-01-13T21:58:14.451Z,2.50
2023-01-13T22:00:50.065Z,1.83
2023-01-13T22:03:19.120Z,2.22
2023-01-13T22:05:53.008Z,2.00
2023-01-13T22:08:19.828Z,1.90
2023-01-13T22:11:08.417Z,2.00
2023-01-13T22:13:53.946Z,2.22
2023-01-13T22:16:46.986Z,1.60
2023-01-13T22:19:13.915Z,1.52
2023-01-13T22:21:49.057Z,1.65
2023-01-13T22:24:15.880Z,1.60
2023-01-13T22:26:49.557Z,1.73
2023-01-13T22:29:16.610Z,1.95
2023-01-13T22:31:50.105Z,1.92
2023-01-13T22:34:23.972Z,2.30
2023-01-13T22:36:50.712Z,1.95
2023-01-13T22:39:23.951Z,1.70
2023-01-13T22:41:50.922Z,2.20
2023-01-13T22:44:23.972Z,2.17
2023-01-13T22:46:53.923Z,1.80
2023-01-13T22:49:27.896Z,1.70
2023-01-13T22:51:54.853Z,2.25
2023-01-13T22:54:27.978Z,2.17
2023-01-13T22:56:54.914Z,1.90
2023-01-13T22:59:28.974Z,1.92
2023-01-13T23:01:55.637Z,1.60
2023-01-13T23:04:31.674Z,1.75
2023-01-13T23:07:00.129Z,1.67
2023-01-13T23:09:37.059Z,1.98
2023-01-13T23:12:04.008Z,2.00
2023-01-13T23:14:43.950Z,1.63
2023-01-13T23:17:11.359Z,1.58
2023-01-13T23:19:44.881Z,1.95
2023-01-13T23:22:19.954Z,1.77
2023-01-13T23:24:49.333Z,1.85
2023-01-13T23:27:23.042Z,2.10
2023-01-13T23:29:49.825Z,2.10
2023-01-13T23:32:23.025Z,2.60
2023-01-13T23:34:49.701Z,2.05
2023-01-13T23:37:23.021Z,1.90
2023-01-13T23:39:49.976Z,1.95
2023-01-13T23:42:22.900Z,2.67
2023-01-13T23:44:50.050Z,2.00
2023-01-13T23:47:23.153Z,2.20
2023-01-13T23:49:50.075Z,2.38
2023-01-13T23:52:25.024Z,2.30
2023-01-13T23:57:27.345Z,2.55
